Atlanta, IL

7:10 PM CST on March 06, 2015 (GMT -0600)
MesoWest ATLNTA IL US UPR | Change Station
CLOSE
Current Station
Personal Weather Station
Location: Atlanta, IL
Elevation: 658 ft
Nearby Weather Stations

Elev 658 ft 40.25 °N, 89.26 °W | Updated 1 hour ago

Clear
Clear
23 °F
Feels Like 23 °F
N
Wind Variable Wind from North
Gusts 0.0 mph

Today
High -- | Low -- °F
--% Chance of Precip.
Yesterday
High -- | Low -- °F
Precip. -- in
6:23 AM 5:53 PM
Full, 99% visible
Pressure 30.28 in
Visibility 10.0 miles
Clouds Clear
Windchill 23 °F
Dew Point Not available.
Humidity Not available.
Rainfall in
Snow Depth Not available.
UV 0 out of 12
Pollen .70 out of 12
Air Quality Not available.
Flu Activity Not available.
METAR KAAA 070055Z AUTO 19008KT 10SM CLR M02/M06 A3028 RMK AO2 T10251065

More Conditions Fewer Conditions

Pressure 30.28 in
Visibility 10.0 miles
Clouds Clear
Windchill 23 °F
Dew Point Not available.
Humidity Not available.
Rainfall in
Snow Depth Not available.
UV 0 out of 12
Pollen .70 out of 12
Air Quality Not available.
Flu Activity Not available.
METAR KAAA 070055Z AUTO 19008KT 10SM CLR M02/M06 A3028 RMK AO2 T10251065

More Conditions Fewer Conditions

10-Day Weather Forecast

Almanac

Astronomy

Mar. 06, 2015 Rise Set
Actual Time
Civil Twilight
Nautical Twilight
Astronomical Twilight
Moon
Length of Visible Light
Length of Day
Tomorrow will be .
, % of the Moon is Illuminated

Today's Extremes

State Highs State Lows

Community

WunderPhotos

Upload Photos

1,803,480 photos uploaded!

WunderBlogs® & News

Nearby

Air Quality

  Air Quality AQ Index Pollutant
Not available.

Snow Depth

Station Depth Elevation

Earthquake Activity

City Distance Mag. Time & Date
Minimum magnitude displayed is 2.5.

Coastal Water Temperatures

Place Temperature

Nearby Weather Stations